sensor_id;sensor_type;location;lat;lon;timestamp;P1;durP1;ratioP1;P2;durP2;ratioP2
22660;SDS011;11497;52.222;21.246;2023-04-08T00:01:57;17.70;;;9.93;;
22660;SDS011;11497;52.222;21.246;2023-04-08T00:04:24;12.70;;;8.70;;
22660;SDS011;11497;52.222;21.246;2023-04-08T00:06:53;15.77;;;9.77;;
22660;SDS011;11497;52.222;21.246;2023-04-08T00:09:21;13.40;;;8.40;;
22660;SDS011;11497;52.222;21.246;2023-04-08T00:11:50;14.23;;;9.07;;
22660;SDS011;11497;52.222;21.246;2023-04-08T00:14:18;14.40;;;9.57;;
22660;SDS011;11497;52.222;21.246;2023-04-08T00:16:46;15.93;;;9.60;;
22660;SDS011;11497;52.222;21.246;2023-04-08T00:19:14;14.43;;;9.73;;
22660;SDS011;11497;52.222;21.246;2023-04-08T00:21:42;17.08;;;9.98;;
22660;SDS011;11497;52.222;21.246;2023-04-08T00:24:09;16.70;;;10.23;;
22660;SDS011;11497;52.222;21.246;2023-04-08T00:26:37;15.15;;;9.98;;
22660;SDS011;11497;52.222;21.246;2023-04-08T00:29:05;15.10;;;9.70;;
22660;SDS011;11497;52.222;21.246;2023-04-08T00:31:33;14.30;;;9.25;;
22660;SDS011;11497;52.222;21.246;2023-04-08T00:34:01;15.77;;;9.27;;
22660;SDS011;11497;52.222;21.246;2023-04-08T00:36:29;16.55;;;10.20;;
22660;SDS011;11497;52.222;21.246;2023-04-08T00:38:56;15.93;;;9.73;;
22660;SDS011;11497;52.222;21.246;2023-04-08T00:41:24;15.75;;;10.05;;
22660;SDS011;11497;52.222;21.246;2023-04-08T00:43:52;15.07;;;10.18;;
22660;SDS011;11497;52.222;21.246;2023-04-08T00:46:20;15.18;;;9.38;;
22660;SDS011;11497;52.222;21.246;2023-04-08T00:48:48;15.95;;;10.73;;
22660;SDS011;11497;52.222;21.246;2023-04-08T00:51:17;17.60;;;10.90;;
22660;SDS011;11497;52.222;21.246;2023-04-08T00:53:45;15.68;;;10.10;;
22660;SDS011;11497;52.222;21.246;2023-04-08T00:56:13;18.95;;;11.45;;
22660;SDS011;11497;52.222;21.246;2023-04-08T00:58:41;20.40;;;11.77;;
22660;SDS011;11497;52.222;21.246;2023-04-08T01:01:11;19.67;;;10.82;;
22660;SDS011;11497;52.222;21.246;2023-04-08T01:04:00;19.33;;;11.75;;
22660;SDS011;11497;52.222;21.246;2023-04-08T01:06:55;19.38;;;11.90;;
22660;SDS011;11497;52.222;21.246;2023-04-08T01:09:51;18.05;;;11.27;;
22660;SDS011;11497;52.222;21.246;2023-04-08T01:12:26;19.20;;;11.07;;
22660;SDS011;11497;52.222;21.246;2023-04-08T01:15:02;19.85;;;12.40;;
22660;SDS011;11497;52.222;21.246;2023-04-08T01:17:33;22.60;;;13.68;;
22660;SDS011;11497;52.222;21.246;2023-04-08T01:20:03;20.95;;;12.77;;
22660;SDS011;11497;52.222;21.246;2023-04-08T01:22:40;21.50;;;13.00;;
22660;SDS011;11497;52.222;21.246;2023-04-08T01:25:18;21.90;;;12.87;;
22660;SDS011;11497;52.222;21.246;2023-04-08T01:27:52;19.60;;;12.30;;
22660;SDS011;11497;52.222;21.246;2023-04-08T01:30:23;22.20;;;13.07;;
22660;SDS011;11497;52.222;21.246;2023-04-08T01:32:53;21.88;;;13.55;;
22660;SDS011;11497;52.222;21.246;2023-04-08T01:35:22;24.10;;;12.57;;
22660;SDS011;11497;52.222;21.246;2023-04-08T01:37:50;23.38;;;12.80;;
22660;SDS011;11497;52.222;21.246;2023-04-08T01:40:21;20.35;;;11.70;;
22660;SDS011;11497;52.222;21.246;2023-04-08T01:42:50;21.55;;;12.00;;
22660;SDS011;11497;52.222;21.246;2023-04-08T01:45:22;21.75;;;11.85;;
22660;SDS011;11497;52.222;21.246;2023-04-08T01:47:51;19.05;;;11.55;;
22660;SDS011;11497;52.222;21.246;2023-04-08T01:50:20;20.45;;;11.30;;
22660;SDS011;11497;52.222;21.246;2023-04-08T01:52:48;18.17;;;11.50;;
22660;SDS011;11497;52.222;21.246;2023-04-08T01:55:19;20.10;;;11.60;;
22660;SDS011;11497;52.222;21.246;2023-04-08T01:57:48;18.85;;;11.63;;
22660;SDS011;11497;52.222;21.246;2023-04-08T02:00:19;20.27;;;11.63;;
22660;SDS011;11497;52.222;21.246;2023-04-08T02:02:53;19.80;;;11.63;;
22660;SDS011;11497;52.222;21.246;2023-04-08T02:05:23;21.00;;;11.73;;
22660;SDS011;11497;52.222;21.246;2023-04-08T02:07:51;21.27;;;11.93;;
22660;SDS011;11497;52.222;21.246;2023-04-08T02:10:19;22.90;;;12.30;;
22660;SDS011;11497;52.222;21.246;2023-04-08T02:12:47;19.90;;;12.00;;
22660;SDS011;11497;52.222;21.246;2023-04-08T02:15:15;21.88;;;12.27;;
22660;SDS011;11497;52.222;21.246;2023-04-08T02:17:44;23.67;;;12.95;;
22660;SDS011;11497;52.222;21.246;2023-04-08T02:20:20;21.95;;;12.60;;
22660;SDS011;11497;52.222;21.246;2023-04-08T02:23:14;24.42;;;13.10;;
22660;SDS011;11497;52.222;21.246;2023-04-08T02:25:47;19.85;;;11.73;;
22660;SDS011;11497;52.222;21.246;2023-04-08T02:28:16;20.30;;;11.93;;
22660;SDS011;11497;52.222;21.246;2023-04-08T02:30:47;21.65;;;12.13;;
22660;SDS011;11497;52.222;21.246;2023-04-08T02:35:50;23.40;;;11.90;;
22660;SDS011;11497;52.222;21.246;2023-04-08T02:38:22;23.50;;;12.43;;
22660;SDS011;11497;52.222;21.246;2023-04-08T02:40:55;21.48;;;11.65;;
22660;SDS011;11497;52.222;21.246;2023-04-08T02:43:24;24.52;;;12.25;;
22660;SDS011;11497;52.222;21.246;2023-04-08T02:45:58;18.75;;;9.50;;
22660;SDS011;11497;52.222;21.246;2023-04-08T02:48:30;24.05;;;12.98;;
22660;SDS011;11497;52.222;21.246;2023-04-08T02:50:57;22.85;;;12.38;;
22660;SDS011;11497;52.222;21.246;2023-04-08T02:53:25;24.58;;;12.80;;
22660;SDS011;11497;52.222;21.246;2023-04-08T02:55:53;28.02;;;14.45;;
22660;SDS011;11497;52.222;21.246;2023-04-08T02:58:21;24.40;;;12.80;;
22660;SDS011;11497;52.222;21.246;2023-04-08T03:00:49;23.25;;;13.00;;
22660;SDS011;11497;52.222;21.246;2023-04-08T03:03:17;26.15;;;13.30;;
22660;SDS011;11497;52.222;21.246;2023-04-08T03:05:45;25.73;;;13.30;;
22660;SDS011;11497;52.222;21.246;2023-04-08T03:08:13;24.38;;;13.60;;
22660;SDS011;11497;52.222;21.246;2023-04-08T03:10:40;25.65;;;13.75;;
22660;SDS011;11497;52.222;21.246;2023-04-08T03:13:08;27.92;;;14.30;;
22660;SDS011;11497;52.222;21.246;2023-04-08T03:15:36;27.40;;;14.50;;
22660;SDS011;11497;52.222;21.246;2023-04-08T03:18:04;27.17;;;14.05;;
22660;SDS011;11497;52.222;21.246;2023-04-08T03:20:32;28.08;;;15.05;;
22660;SDS011;11497;52.222;21.246;2023-04-08T03:23:00;29.67;;;14.52;;
22660;SDS011;11497;52.222;21.246;2023-04-08T03:25:28;31.08;;;15.30;;
22660;SDS011;11497;52.222;21.246;2023-04-08T03:27:57;31.73;;;15.02;;
22660;SDS011;11497;52.222;21.246;2023-04-08T03:30:25;29.85;;;14.77;;
22660;SDS011;11497;52.222;21.246;2023-04-08T03:32:53;29.42;;;14.50;;
22660;SDS011;11497;52.222;21.246;2023-04-08T03:35:21;28.63;;;14.75;;
22660;SDS011;11497;52.222;21.246;2023-04-08T03:37:49;30.60;;;14.65;;
22660;SDS011;11497;52.222;21.246;2023-04-08T03:40:16;27.30;;;15.00;;
22660;SDS011;11497;52.222;21.246;2023-04-08T03:42:45;25.58;;;14.35;;
22660;SDS011;11497;52.222;21.246;2023-04-08T03:45:12;32.85;;;15.77;;
22660;SDS011;11497;52.222;21.246;2023-04-08T03:47:40;30.83;;;15.40;;
22660;SDS011;11497;52.222;21.246;2023-04-08T03:50:08;34.50;;;15.32;;
22660;SDS011;11497;52.222;21.246;2023-04-08T03:52:36;34.03;;;15.82;;
22660;SDS011;11497;52.222;21.246;2023-04-08T03:55:04;31.20;;;15.57;;
22660;SDS011;11497;52.222;21.246;2023-04-08T03:57:32;33.28;;;15.27;;
22660;SDS011;11497;52.222;21.246;2023-04-08T04:00:00;32.40;;;15.15;;
22660;SDS011;11497;52.222;21.246;2023-04-08T04:02:38;27.73;;;14.80;;
22660;SDS011;11497;52.222;21.246;2023-04-08T04:05:06;30.50;;;15.43;;
22660;SDS011;11497;52.222;21.246;2023-04-08T04:07:34;34.05;;;14.93;;
22660;SDS011;11497;52.222;21.246;2023-04-08T04:10:02;30.95;;;15.80;;
22660;SDS011;11497;52.222;21.246;2023-04-08T04:12:30;32.17;;;14.98;;
22660;SDS011;11497;52.222;21.246;2023-04-08T04:14:58;31.73;;;15.35;;
22660;SDS011;11497;52.222;21.246;2023-04-08T04:17:26;32.58;;;16.35;;
22660;SDS011;11497;52.222;21.246;2023-04-08T04:19:54;33.03;;;15.85;;
22660;SDS011;11497;52.222;21.246;2023-04-08T04:22:22;31.85;;;15.80;;
22660;SDS011;11497;52.222;21.246;2023-04-08T04:24:49;36.42;;;16.67;;
22660;SDS011;11497;52.222;21.246;2023-04-08T04:27:17;32.78;;;15.45;;
22660;SDS011;11497;52.222;21.246;2023-04-08T04:29:45;37.55;;;16.23;;
22660;SDS011;11497;52.222;21.246;2023-04-08T04:32:13;31.98;;;15.10;;
22660;SDS011;11497;52.222;21.246;2023-04-08T04:34:41;33.22;;;16.38;;
22660;SDS011;11497;52.222;21.246;2023-04-08T04:37:10;30.38;;;15.98;;
22660;SDS011;11497;52.222;21.246;2023-04-08T04:39:38;35.78;;;15.95;;
22660;SDS011;11497;52.222;21.246;2023-04-08T04:42:06;32.95;;;16.58;;
22660;SDS011;11497;52.222;21.246;2023-04-08T04:44:33;33.20;;;17.08;;
22660;SDS011;11497;52.222;21.246;2023-04-08T04:47:02;33.53;;;17.58;;
22660;SDS011;11497;52.222;21.246;2023-04-08T04:49:29;34.05;;;16.65;;
22660;SDS011;11497;52.222;21.246;2023-04-08T04:51:57;34.85;;;17.95;;
22660;SDS011;11497;52.222;21.246;2023-04-08T04:54:25;36.15;;;17.45;;
22660;SDS011;11497;52.222;21.246;2023-04-08T04:56:53;30.95;;;16.48;;
22660;SDS011;11497;52.222;21.246;2023-04-08T04:59:21;34.75;;;17.17;;
22660;SDS011;11497;52.222;21.246;2023-04-08T05:01:49;31.02;;;16.42;;
22660;SDS011;11497;52.222;21.246;2023-04-08T05:04:16;31.80;;;16.98;;
22660;SDS011;11497;52.222;21.246;2023-04-08T05:06:44;27.50;;;15.82;;
22660;SDS011;11497;52.222;21.246;2023-04-08T05:09:12;26.38;;;16.42;;
22660;SDS011;11497;52.222;21.246;2023-04-08T05:11:40;23.33;;;14.55;;
22660;SDS011;11497;52.222;21.246;2023-04-08T05:14:08;21.45;;;13.70;;
22660;SDS011;11497;52.222;21.246;2023-04-08T05:16:36;23.90;;;14.05;;
22660;SDS011;11497;52.222;21.246;2023-04-08T05:19:04;21.17;;;12.20;;
22660;SDS011;11497;52.222;21.246;2023-04-08T05:21:32;17.73;;;12.30;;
22660;SDS011;11497;52.222;21.246;2023-04-08T05:24:00;21.88;;;12.63;;
22660;SDS011;11497;52.222;21.246;2023-04-08T05:26:28;19.70;;;12.70;;
22660;SDS011;11497;52.222;21.246;2023-04-08T05:28:56;19.88;;;12.60;;
22660;SDS011;11497;52.222;21.246;2023-04-08T05:31:24;22.20;;;13.23;;
22660;SDS011;11497;52.222;21.246;2023-04-08T05:33:52;22.30;;;13.10;;
22660;SDS011;11497;52.222;21.246;2023-04-08T05:36:20;24.48;;;13.25;;
22660;SDS011;11497;52.222;21.246;2023-04-08T05:38:48;19.55;;;12.15;;
22660;SDS011;11497;52.222;21.246;2023-04-08T05:41:16;21.90;;;12.73;;
22660;SDS011;11497;52.222;21.246;2023-04-08T05:43:44;17.92;;;11.85;;
22660;SDS011;11497;52.222;21.246;2023-04-08T05:46:12;21.40;;;12.13;;
22660;SDS011;11497;52.222;21.246;2023-04-08T05:48:40;20.27;;;12.57;;
22660;SDS011;11497;52.222;21.246;2023-04-08T05:51:14;18.10;;;11.65;;
22660;SDS011;11497;52.222;21.246;2023-04-08T05:53:46;20.33;;;12.23;;
22660;SDS011;11497;52.222;21.246;2023-04-08T05:56:14;19.60;;;12.20;;
22660;SDS011;11497;52.222;21.246;2023-04-08T05:58:41;20.95;;;13.15;;
22660;SDS011;11497;52.222;21.246;2023-04-08T06:01:09;23.23;;;13.27;;
22660;SDS011;11497;52.222;21.246;2023-04-08T06:03:37;23.33;;;13.93;;
22660;SDS011;11497;52.222;21.246;2023-04-08T06:06:08;22.40;;;13.32;;
22660;SDS011;11497;52.222;21.246;2023-04-08T06:08:39;20.67;;;13.55;;
22660;SDS011;11497;52.222;21.246;2023-04-08T06:11:07;19.25;;;12.85;;
22660;SDS011;11497;52.222;21.246;2023-04-08T06:13:35;22.80;;;13.13;;
22660;SDS011;11497;52.222;21.246;2023-04-08T06:16:14;22.33;;;13.27;;
22660;SDS011;11497;52.222;21.246;2023-04-08T06:18:47;19.13;;;12.82;;
22660;SDS011;11497;52.222;21.246;2023-04-08T06:21:15;17.25;;;12.55;;
22660;SDS011;11497;52.222;21.246;2023-04-08T06:23:43;16.30;;;12.48;;
22660;SDS011;11497;52.222;21.246;2023-04-08T06:26:11;15.70;;;11.75;;
22660;SDS011;11497;52.222;21.246;2023-04-08T06:28:38;16.13;;;11.00;;
22660;SDS011;11497;52.222;21.246;2023-04-08T06:31:07;15.00;;;11.48;;
22660;SDS011;11497;52.222;21.246;2023-04-08T06:33:34;14.50;;;11.13;;
22660;SDS011;11497;52.222;21.246;2023-04-08T06:36:03;14.05;;;10.73;;
22660;SDS011;11497;52.222;21.246;2023-04-08T06:38:33;15.73;;;10.88;;
22660;SDS011;11497;52.222;21.246;2023-04-08T06:41:02;14.65;;;10.85;;
22660;SDS011;11497;52.222;21.246;2023-04-08T06:43:30;14.55;;;11.05;;
22660;SDS011;11497;52.222;21.246;2023-04-08T06:45:58;14.75;;;10.10;;
22660;SDS011;11497;52.222;21.246;2023-04-08T06:48:26;14.10;;;10.65;;
22660;SDS011;11497;52.222;21.246;2023-04-08T06:50:56;13.32;;;9.80;;
22660;SDS011;11497;52.222;21.246;2023-04-08T06:53:26;14.68;;;9.55;;
22660;SDS011;11497;52.222;21.246;2023-04-08T06:55:59;14.40;;;9.97;;
22660;SDS011;11497;52.222;21.246;2023-04-08T06:58:27;13.00;;;10.38;;
22660;SDS011;11497;52.222;21.246;2023-04-08T07:00:55;15.50;;;9.23;;
22660;SDS011;11497;52.222;21.246;2023-04-08T07:03:24;11.88;;;10.02;;
22660;SDS011;11497;52.222;21.246;2023-04-08T07:05:52;15.10;;;9.40;;
22660;SDS011;11497;52.222;21.246;2023-04-08T07:08:20;12.00;;;9.57;;
22660;SDS011;11497;52.222;21.246;2023-04-08T07:10:48;12.63;;;9.32;;
22660;SDS011;11497;52.222;21.246;2023-04-08T07:13:18;9.90;;;8.30;;
22660;SDS011;11497;52.222;21.246;2023-04-08T07:15:46;12.05;;;8.57;;
22660;SDS011;11497;52.222;21.246;2023-04-08T07:18:14;12.43;;;9.10;;
22660;SDS011;11497;52.222;21.246;2023-04-08T07:20:42;12.55;;;8.57;;
22660;SDS011;11497;52.222;21.246;2023-04-08T07:23:10;11.05;;;8.55;;
22660;SDS011;11497;52.222;21.246;2023-04-08T07:25:38;9.45;;;7.95;;
22660;SDS011;11497;52.222;21.246;2023-04-08T07:28:05;9.93;;;8.48;;
22660;SDS011;11497;52.222;21.246;2023-04-08T07:30:33;10.52;;;8.57;;
22660;SDS011;11497;52.222;21.246;2023-04-08T07:33:02;11.05;;;8.50;;
22660;SDS011;11497;52.222;21.246;2023-04-08T07:35:30;9.65;;;8.00;;
22660;SDS011;11497;52.222;21.246;2023-04-08T07:37:59;10.43;;;8.73;;
22660;SDS011;11497;52.222;21.246;2023-04-08T07:40:27;10.15;;;7.80;;
22660;SDS011;11497;52.222;21.246;2023-04-08T07:42:55;9.30;;;7.72;;
22660;SDS011;11497;52.222;21.246;2023-04-08T07:45:23;8.50;;;7.50;;
22660;SDS011;11497;52.222;21.246;2023-04-08T07:47:51;10.10;;;7.97;;
22660;SDS011;11497;52.222;21.246;2023-04-08T07:50:19;9.25;;;7.95;;
22660;SDS011;11497;52.222;21.246;2023-04-08T07:52:47;8.75;;;7.65;;
22660;SDS011;11497;52.222;21.246;2023-04-08T07:55:15;9.65;;;7.53;;
22660;SDS011;11497;52.222;21.246;2023-04-08T07:57:43;10.68;;;7.72;;
22660;SDS011;11497;52.222;21.246;2023-04-08T08:00:12;9.43;;;8.05;;
22660;SDS011;11497;52.222;21.246;2023-04-08T08:02:46;11.60;;;7.38;;
22660;SDS011;11497;52.222;21.246;2023-04-08T08:05:14;8.43;;;7.28;;
22660;SDS011;11497;52.222;21.246;2023-04-08T08:07:42;8.43;;;7.30;;
22660;SDS011;11497;52.222;21.246;2023-04-08T08:10:11;12.52;;;7.65;;
22660;SDS011;11497;52.222;21.246;2023-04-08T08:12:38;8.57;;;7.70;;
22660;SDS011;11497;52.222;21.246;2023-04-08T08:15:06;8.88;;;7.43;;
22660;SDS011;11497;52.222;21.246;2023-04-08T08:17:35;9.52;;;7.75;;
22660;SDS011;11497;52.222;21.246;2023-04-08T08:20:03;8.27;;;7.43;;
22660;SDS011;11497;52.222;21.246;2023-04-08T08:22:31;9.95;;;7.97;;
22660;SDS011;11497;52.222;21.246;2023-04-08T08:24:59;7.82;;;7.03;;
22660;SDS011;11497;52.222;21.246;2023-04-08T08:27:27;8.88;;;7.30;;
22660;SDS011;11497;52.222;21.246;2023-04-08T08:29:55;8.35;;;6.60;;
22660;SDS011;11497;52.222;21.246;2023-04-08T08:32:23;8.05;;;7.15;;
22660;SDS011;11497;52.222;21.246;2023-04-08T08:34:51;9.10;;;6.93;;
22660;SDS011;11497;52.222;21.246;2023-04-08T08:37:19;8.70;;;7.28;;
22660;SDS011;11497;52.222;21.246;2023-04-08T08:39:47;9.75;;;7.35;;
22660;SDS011;11497;52.222;21.246;2023-04-08T08:42:21;10.48;;;7.72;;
22660;SDS011;11497;52.222;21.246;2023-04-08T08:44:50;8.38;;;7.47;;
22660;SDS011;11497;52.222;21.246;2023-04-08T08:47:20;10.48;;;7.35;;
22660;SDS011;11497;52.222;21.246;2023-04-08T08:49:48;8.50;;;7.32;;
22660;SDS011;11497;52.222;21.246;2023-04-08T08:52:16;8.18;;;7.35;;
22660;SDS011;11497;52.222;21.246;2023-04-08T08:54:44;8.30;;;7.03;;
22660;SDS011;11497;52.222;21.246;2023-04-08T08:57:18;8.10;;;7.10;;
22660;SDS011;11497;52.222;21.246;2023-04-08T08:59:47;8.45;;;6.90;;
22660;SDS011;11497;52.222;21.246;2023-04-08T09:02:30;7.75;;;6.70;;
22660;SDS011;11497;52.222;21.246;2023-04-08T09:05:01;9.48;;;7.93;;
22660;SDS011;11497;52.222;21.246;2023-04-08T09:07:31;8.35;;;7.05;;
22660;SDS011;11497;52.222;21.246;2023-04-08T09:10:02;8.48;;;7.57;;
22660;SDS011;11497;52.222;21.246;2023-04-08T09:12:31;9.10;;;7.07;;
22660;SDS011;11497;52.222;21.246;2023-04-08T09:15:08;8.70;;;7.55;;
22660;SDS011;11497;52.222;21.246;2023-04-08T09:17:38;7.07;;;6.38;;
22660;SDS011;11497;52.222;21.246;2023-04-08T09:20:08;8.30;;;7.15;;
22660;SDS011;11497;52.222;21.246;2023-04-08T09:25:26;7.32;;;6.57;;
22660;SDS011;11497;52.222;21.246;2023-04-08T09:27:58;8.43;;;6.35;;
22660;SDS011;11497;52.222;21.246;2023-04-08T09:30:27;8.48;;;7.15;;
22660;SDS011;11497;52.222;21.246;2023-04-08T09:32:58;7.50;;;6.53;;
22660;SDS011;11497;52.222;21.246;2023-04-08T09:35:27;7.95;;;6.63;;
22660;SDS011;11497;52.222;21.246;2023-04-08T09:37:55;8.10;;;7.30;;
22660;SDS011;11497;52.222;21.246;2023-04-08T09:40:23;8.32;;;7.13;;
22660;SDS011;11497;52.222;21.246;2023-04-08T09:42:53;7.85;;;7.03;;
22660;SDS011;11497;52.222;21.246;2023-04-08T09:45:23;8.60;;;7.63;;
22660;SDS011;11497;52.222;21.246;2023-04-08T09:48:09;11.23;;;7.35;;
22660;SDS011;11497;52.222;21.246;2023-04-08T09:50:45;8.50;;;7.07;;
22660;SDS011;11497;52.222;21.246;2023-04-08T09:53:19;9.43;;;7.50;;
22660;SDS011;11497;52.222;21.246;2023-04-08T09:55:54;8.70;;;7.30;;
22660;SDS011;11497;52.222;21.246;2023-04-08T09:58:31;9.70;;;7.43;;
22660;SDS011;11497;52.222;21.246;2023-04-08T10:01:05;7.45;;;6.70;;
22660;SDS011;11497;52.222;21.246;2023-04-08T10:03:36;7.68;;;6.72;;
22660;SDS011;11497;52.222;21.246;2023-04-08T10:06:12;8.27;;;6.70;;
22660;SDS011;11497;52.222;21.246;2023-04-08T10:08:40;9.35;;;7.03;;
22660;SDS011;11497;52.222;21.246;2023-04-08T10:11:09;9.73;;;6.82;;
22660;SDS011;11497;52.222;21.246;2023-04-08T10:13:37;7.55;;;6.70;;
22660;SDS011;11497;52.222;21.246;2023-04-08T10:16:17;8.43;;;6.72;;
22660;SDS011;11497;52.222;21.246;2023-04-08T10:18:44;9.43;;;7.20;;
22660;SDS011;11497;52.222;21.246;2023-04-08T10:24:07;7.85;;;7.05;;
22660;SDS011;11497;52.222;21.246;2023-04-08T10:26:40;7.60;;;6.57;;
22660;SDS011;11497;52.222;21.246;2023-04-08T10:31:52;8.65;;;7.03;;
22660;SDS011;11497;52.222;21.246;2023-04-08T10:34:23;7.93;;;7.05;;
22660;SDS011;11497;52.222;21.246;2023-04-08T10:36:53;9.98;;;7.93;;
22660;SDS011;11497;52.222;21.246;2023-04-08T10:39:23;10.48;;;7.60;;
22660;SDS011;11497;52.222;21.246;2023-04-08T10:41:53;10.45;;;7.70;;
22660;SDS011;11497;52.222;21.246;2023-04-08T10:44:22;8.75;;;7.60;;
22660;SDS011;11497;52.222;21.246;2023-04-08T10:46:52;9.90;;;7.40;;
22660;SDS011;11497;52.222;21.246;2023-04-08T10:49:21;8.63;;;7.00;;
22660;SDS011;11497;52.222;21.246;2023-04-08T10:51:57;8.93;;;7.03;;
22660;SDS011;11497;52.222;21.246;2023-04-08T10:54:26;9.60;;;7.30;;
22660;SDS011;11497;52.222;21.246;2023-04-08T10:56:54;11.52;;;7.45;;
22660;SDS011;11497;52.222;21.246;2023-04-08T10:59:29;9.57;;;7.65;;
22660;SDS011;11497;52.222;21.246;2023-04-08T11:02:00;10.68;;;8.07;;
22660;SDS011;11497;52.222;21.246;2023-04-08T11:04:29;10.52;;;7.85;;
22660;SDS011;11497;52.222;21.246;2023-04-08T11:06:57;12.50;;;7.35;;
22660;SDS011;11497;52.222;21.246;2023-04-08T11:09:25;8.27;;;6.45;;
22660;SDS011;11497;52.222;21.246;2023-04-08T11:11:53;8.25;;;6.65;;
22660;SDS011;11497;52.222;21.246;2023-04-08T11:14:22;9.40;;;6.68;;
22660;SDS011;11497;52.222;21.246;2023-04-08T11:16:51;9.30;;;7.07;;
22660;SDS011;11497;52.222;21.246;2023-04-08T11:19:19;9.20;;;6.75;;
22660;SDS011;11497;52.222;21.246;2023-04-08T11:21:49;8.25;;;6.90;;
22660;SDS011;11497;52.222;21.246;2023-04-08T11:24:17;8.73;;;6.90;;
22660;SDS011;11497;52.222;21.246;2023-04-08T11:26:48;8.18;;;6.53;;
22660;SDS011;11497;52.222;21.246;2023-04-08T11:29:16;7.18;;;6.22;;
22660;SDS011;11497;52.222;21.246;2023-04-08T11:31:44;8.18;;;6.28;;
22660;SDS011;11497;52.222;21.246;2023-04-08T11:34:20;7.15;;;6.00;;
22660;SDS011;11497;52.222;21.246;2023-04-08T11:36:49;7.45;;;6.53;;
22660;SDS011;11497;52.222;21.246;2023-04-08T11:39:21;8.48;;;6.80;;
22660;SDS011;11497;52.222;21.246;2023-04-08T11:41:49;8.68;;;6.78;;
22660;SDS011;11497;52.222;21.246;2023-04-08T11:44:17;8.98;;;7.40;;
22660;SDS011;11497;52.222;21.246;2023-04-08T11:46:51;9.18;;;7.40;;
22660;SDS011;11497;52.222;21.246;2023-04-08T11:49:22;9.55;;;7.22;;
22660;SDS011;11497;52.222;21.246;2023-04-08T11:51:57;7.85;;;6.53;;
22660;SDS011;11497;52.222;21.246;2023-04-08T11:54:26;8.85;;;6.97;;
22660;SDS011;11497;52.222;21.246;2023-04-08T11:56:55;7.45;;;6.32;;
22660;SDS011;11497;52.222;21.246;2023-04-08T11:59:24;9.00;;;6.50;;
22660;SDS011;11497;52.222;21.246;2023-04-08T12:01:55;7.18;;;5.68;;
22660;SDS011;11497;52.222;21.246;2023-04-08T12:04:23;6.68;;;5.65;;
22660;SDS011;11497;52.222;21.246;2023-04-08T12:06:52;8.65;;;6.85;;
22660;SDS011;11497;52.222;21.246;2023-04-08T12:09:22;8.02;;;6.80;;
22660;SDS011;11497;52.222;21.246;2023-04-08T12:11:50;8.40;;;6.85;;
22660;SDS011;11497;52.222;21.246;2023-04-08T12:14:18;8.38;;;6.88;;
22660;SDS011;11497;52.222;21.246;2023-04-08T12:16:47;8.02;;;6.88;;
22660;SDS011;11497;52.222;21.246;2023-04-08T12:19:15;8.73;;;7.07;;
22660;SDS011;11497;52.222;21.246;2023-04-08T12:21:43;8.90;;;7.10;;
22660;SDS011;11497;52.222;21.246;2023-04-08T12:24:11;8.63;;;6.88;;
22660;SDS011;11497;52.222;21.246;2023-04-08T12:26:39;7.07;;;6.13;;
22660;SDS011;11497;52.222;21.246;2023-04-08T12:29:06;7.65;;;6.00;;
22660;SDS011;11497;52.222;21.246;2023-04-08T12:31:37;7.05;;;5.95;;
22660;SDS011;11497;52.222;21.246;2023-04-08T12:34:05;7.75;;;5.97;;
22660;SDS011;11497;52.222;21.246;2023-04-08T12:36:33;7.60;;;5.90;;
22660;SDS011;11497;52.222;21.246;2023-04-08T12:39:01;6.28;;;5.43;;
22660;SDS011;11497;52.222;21.246;2023-04-08T12:41:29;5.32;;;4.80;;
22660;SDS011;11497;52.222;21.246;2023-04-08T12:43:57;6.32;;;5.35;;
22660;SDS011;11497;52.222;21.246;2023-04-08T12:46:25;7.22;;;5.80;;
22660;SDS011;11497;52.222;21.246;2023-04-08T12:48:53;9.43;;;6.32;;
22660;SDS011;11497;52.222;21.246;2023-04-08T12:51:29;6.93;;;6.20;;
22660;SDS011;11497;52.222;21.246;2023-04-08T12:53:57;7.88;;;5.10;;
22660;SDS011;11497;52.222;21.246;2023-04-08T12:56:27;7.28;;;5.95;;
22660;SDS011;11497;52.222;21.246;2023-04-08T12:58:55;8.50;;;6.07;;
22660;SDS011;11497;52.222;21.246;2023-04-08T13:01:23;7.50;;;5.95;;
22660;SDS011;11497;52.222;21.246;2023-04-08T13:03:51;6.90;;;5.80;;
22660;SDS011;11497;52.222;21.246;2023-04-08T13:06:20;7.50;;;5.85;;
22660;SDS011;11497;52.222;21.246;2023-04-08T13:08:48;8.05;;;5.85;;
22660;SDS011;11497;52.222;21.246;2023-04-08T13:11:16;7.88;;;6.50;;
22660;SDS011;11497;52.222;21.246;2023-04-08T13:13:44;7.00;;;6.30;;
22660;SDS011;11497;52.222;21.246;2023-04-08T13:16:13;6.97;;;5.70;;
22660;SDS011;11497;52.222;21.246;2023-04-08T13:18:41;6.05;;;5.45;;
22660;SDS011;11497;52.222;21.246;2023-04-08T13:21:09;5.95;;;5.30;;
22660;SDS011;11497;52.222;21.246;2023-04-08T13:23:36;6.85;;;5.25;;
22660;SDS011;11497;52.222;21.246;2023-04-08T13:26:05;5.40;;;4.90;;
22660;SDS011;11497;52.222;21.246;2023-04-08T13:28:32;5.93;;;5.05;;
22660;SDS011;11497;52.222;21.246;2023-04-08T13:31:20;6.80;;;5.30;;
22660;SDS011;11497;52.222;21.246;2023-04-08T13:33:48;7.70;;;4.68;;
22660;SDS011;11497;52.222;21.246;2023-04-08T13:36:17;6.55;;;5.20;;
22660;SDS011;11497;52.222;21.246;2023-04-08T13:38:45;8.15;;;5.55;;
22660;SDS011;11497;52.222;21.246;2023-04-08T13:41:13;6.00;;;5.40;;
22660;SDS011;11497;52.222;21.246;2023-04-08T13:43:41;7.80;;;5.25;;
22660;SDS011;11497;52.222;21.246;2023-04-08T13:46:08;5.68;;;5.07;;
22660;SDS011;11497;52.222;21.246;2023-04-08T13:48:37;6.22;;;5.13;;
22660;SDS011;11497;52.222;21.246;2023-04-08T13:51:05;6.53;;;5.20;;
22660;SDS011;11497;52.222;21.246;2023-04-08T13:53:33;6.70;;;5.43;;
22660;SDS011;11497;52.222;21.246;2023-04-08T13:56:00;7.75;;;5.10;;
22660;SDS011;11497;52.222;21.246;2023-04-08T13:58:29;8.65;;;6.35;;
22660;SDS011;11497;52.222;21.246;2023-04-08T14:00:57;6.03;;;5.10;;
22660;SDS011;11497;52.222;21.246;2023-04-08T14:03:25;7.45;;;5.90;;
22660;SDS011;11497;52.222;21.246;2023-04-08T14:05:53;9.80;;;6.15;;
22660;SDS011;11497;52.222;21.246;2023-04-08T14:08:21;9.30;;;6.90;;
22660;SDS011;11497;52.222;21.246;2023-04-08T14:10:52;8.10;;;6.38;;
22660;SDS011;11497;52.222;21.246;2023-04-08T14:13:23;6.45;;;5.55;;
22660;SDS011;11497;52.222;21.246;2023-04-08T14:15:51;8.05;;;5.93;;
22660;SDS011;11497;52.222;21.246;2023-04-08T14:18:20;8.95;;;6.05;;
22660;SDS011;11497;52.222;21.246;2023-04-08T14:20:48;6.82;;;5.82;;
22660;SDS011;11497;52.222;21.246;2023-04-08T14:23:16;6.65;;;5.68;;
22660;SDS011;11497;52.222;21.246;2023-04-08T14:25:44;7.55;;;5.88;;
22660;SDS011;11497;52.222;21.246;2023-04-08T14:28:12;8.70;;;6.22;;
22660;SDS011;11497;52.222;21.246;2023-04-08T14:30:39;8.85;;;6.35;;
22660;SDS011;11497;52.222;21.246;2023-04-08T14:33:08;9.27;;;7.00;;
22660;SDS011;11497;52.222;21.246;2023-04-08T14:35:36;8.75;;;6.88;;
22660;SDS011;11497;52.222;21.246;2023-04-08T14:38:04;8.52;;;6.63;;
22660;SDS011;11497;52.222;21.246;2023-04-08T14:40:32;9.00;;;6.57;;
22660;SDS011;11497;52.222;21.246;2023-04-08T14:43:03;18.17;;;8.75;;
22660;SDS011;11497;52.222;21.246;2023-04-08T14:45:31;7.65;;;5.70;;